Time;durP1;ratioP1;P1;durP2;ratioP2;P2;SDS_P1;SDS_P2;PMS_P1;PMS_P2;Temp;Humidity;BMP_temperature;BMP_pressure;BME280_temperature;BME280_humidity;BME280_pressure;Samples;Min_cycle;Max_cycle;Signal;HPM_P1;HPM_P2
2023/08/26 00:00:04;;;;;;;4.13;2.00;;;24.20;1.00;;;;;;5060958;29;20036;-69
2023/08/26 00:02:38;;;;;;;3.22;2.15;;;24.10;1.00;;;;;;5091356;28;20114;-68
2023/08/26 00:05:10;;;;;;;3.78;2.40;;;24.00;99.90;;;;;;5082413;29;20055;-69
2023/08/26 00:07:45;;;;;;;2.53;1.92;;;24.00;99.90;;;;;;5082155;29;20046;-68
2023/08/26 00:10:16;;;;;;;3.38;2.00;;;24.00;99.90;;;;;;5082291;28;20054;-68
2023/08/26 00:12:48;;;;;;;2.63;1.90;;;23.90;1.00;;;;;;5164837;28;20036;-68
2023/08/26 00:15:22;;;;;;;4.30;1.70;;;23.80;1.00;;;;;;5163897;28;20032;-68
2023/08/26 00:17:53;;;;;;;;;;;23.70;1.00;;;;;;5086144;28;20057;-68
2023/08/26 00:20:26;;;;;;;2.88;2.28;;;23.50;1.00;;;;;;5071487;28;19925;-68
2023/08/26 00:23:01;;;;;;;5.22;2.20;;;23.40;1.00;;;;;;5090149;28;20074;-68
2023/08/26 00:25:33;;;;;;;9.65;2.42;;;23.30;99.90;;;;;;5077759;28;20048;-69
2023/08/26 00:28:08;;;;;;;5.22;2.72;;;23.20;1.00;;;;;;5109217;28;20058;-69
2023/08/26 00:30:39;;;;;;;4.18;3.00;;;23.10;1.00;;;;;;5077380;29;20062;-70
2023/08/26 00:33:14;;;;;;;3.38;2.40;;;23.10;1.00;;;;;;5143425;28;20031;-68
2023/08/26 00:35:50;;;;;;;3.85;2.20;;;23.00;1.00;;;;;;5088767;28;20050;-68
2023/08/26 00:38:24;;;;;;;2.42;2.10;;;23.00;1.00;;;;;;5097425;29;20046;-68
2023/08/26 00:40:57;;;;;;;3.53;2.72;;;23.00;1.00;;;;;;5096760;29;20044;-68
2023/08/26 00:43:33;;;;;;;2.10;1.83;;;22.90;1.00;;;;;;5162837;28;20358;-68
2023/08/26 00:46:07;;;;;;;4.70;2.20;;;22.80;1.00;;;;;;5126207;28;20054;-69
2023/08/26 00:48:44;;;;;;;4.03;2.35;;;22.70;1.00;;;;;;5145758;28;20054;-67
2023/08/26 00:51:20;;;;;;;3.00;1.98;;;22.70;1.00;;;;;;5162831;28;20046;-67
2023/08/26 00:53:58;;;;;;;4.78;2.15;;;22.60;1.00;;;;;;5128015;28;20046;-68
2023/08/26 00:56:38;;;;;;;3.88;2.30;;;22.60;1.00;;;;;;5078818;29;20050;-66
2023/08/26 00:59:14;;;;;;;5.50;2.08;;;22.60;1.00;;;;;;5061148;29;20051;-68
2023/08/26 01:04:24;;;;;;;5.38;2.15;;;22.50;99.90;;;;;;5148910;28;20038;-63
2023/08/26 01:06:56;;;;;;;3.33;2.08;;;22.40;99.90;;;;;;5045760;28;20252;-62
2023/08/26 01:09:31;;;;;;;3.22;2.05;;;22.40;99.90;;;;;;5166150;28;20052;-61
2023/08/26 01:12:29;;;;;;;3.45;2.45;;;22.30;99.90;;;;;;5075752;29;20107;-59
2023/08/26 01:15:09;;;;;;;2.22;1.88;;;22.20;99.90;;;;;;5148917;28;20056;-61
2023/08/26 01:17:43;;;;;;;7.68;2.70;;;22.30;99.90;;;;;;5050728;29;20052;-61
2023/08/26 01:20:16;;;;;;;3.97;2.22;;;22.20;99.90;;;;;;5154546;28;20230;-61
2023/08/26 01:22:52;;;;;;;2.40;2.10;;;22.20;99.90;;;;;;5068027;29;20372;-60
2023/08/26 01:25:24;;;;;;;2.42;2.20;;;22.10;99.90;;;;;;5080322;29;20275;-63
2023/08/26 01:28:00;;;;;;;4.78;2.15;;;22.10;99.90;;;;;;5058507;28;20028;-59
2023/08/26 01:30:33;;;;;;;3.53;2.13;;;21.90;99.90;;;;;;5068335;28;20500;-62
2023/08/26 01:33:42;;;;;;;4.25;2.40;;;21.90;99.90;;;;;;5174436;28;20044;-62
2023/08/26 01:36:22;;;;;;;2.88;2.45;;;21.90;1.00;;;;;;5045690;28;20039;-62
2023/08/26 01:39:04;;;;;;;2.45;2.13;;;21.90;1.00;;;;;;5059229;29;20464;-61
2023/08/26 01:41:40;;;;;;;2.65;2.13;;;21.80;1.00;;;;;;5052326;29;20062;-62
2023/08/26 01:44:12;;;;;;;4.60;2.35;;;21.80;1.00;;;;;;5075883;29;20051;-61
2023/08/26 01:46:47;;;;;;;3.95;2.50;;;21.70;1.00;;;;;;5068156;28;20040;-62
2023/08/26 01:49:20;;;;;;;4.45;2.40;;;21.70;1.00;;;;;;5174733;28;20056;-62
2023/08/26 01:52:00;;;;;;;3.50;2.83;;;21.60;1.00;;;;;;5078228;29;20040;-62
2023/08/26 01:54:33;;;;;;;4.78;2.33;;;21.60;1.00;;;;;;5091667;28;20508;-62
2023/08/26 01:57:07;;;;;;;3.20;2.80;;;21.60;1.00;;;;;;5133648;28;20032;-63
2023/08/26 01:59:39;;;;;;;;;;;21.60;1.00;;;;;;5043880;29;20268;-64
2023/08/26 02:02:15;;;;;;;5.45;2.17;;;21.50;1.00;;;;;;5069182;29;20018;-63
2023/08/26 02:04:47;;;;;;;2.92;2.25;;;21.50;1.00;;;;;;5094711;29;20044;-60
2023/08/26 02:07:18;;;;;;;3.58;2.47;;;21.50;1.00;;;;;;5088492;29;20342;-62
2023/08/26 02:09:54;;;;;;;2.53;2.17;;;21.60;1.00;;;;;;5096903;28;20051;-62
2023/08/26 02:12:29;;;;;;;5.55;2.20;;;21.60;1.00;;;;;;5106071;28;20040;-63
2023/08/26 02:15:09;;;;;;;2.67;2.05;;;21.60;1.00;;;;;;5170872;28;20048;-63
2023/08/26 02:17:43;;;;;;;2.80;2.00;;;21.60;99.90;;;;;;5110161;28;20028;-63
2023/08/26 02:20:18;;;;;;;2.70;2.47;;;21.60;99.90;;;;;;5110595;29;20043;-63
2023/08/26 02:22:50;;;;;;;5.43;2.40;;;21.60;99.90;;;;;;5110640;29;20043;-63
2023/08/26 02:25:22;;;;;;;3.67;2.58;;;21.60;99.90;;;;;;5097109;29;20363;-62
2023/08/26 02:27:54;;;;;;;2.97;2.42;;;21.60;1.00;;;;;;5089688;28;20044;-62
2023/08/26 02:30:33;;;;;;;3.67;2.20;;;21.60;1.00;;;;;;5091638;29;20028;-62
2023/08/26 02:33:10;;;;;;;4.18;2.78;;;21.60;99.90;;;;;;5092378;28;20043;-64
2023/08/26 02:35:48;;;;;;;4.15;2.30;;;21.70;99.90;;;;;;5089491;28;20324;-62
2023/08/26 02:38:22;;;;;;;4.13;2.30;;;21.70;99.90;;;;;;5159514;28;20070;-64
2023/08/26 02:40:57;;;;;;;4.68;2.35;;;21.80;99.90;;;;;;5090057;29;20036;-62
2023/08/26 02:43:31;;;;;;;2.92;2.40;;;21.90;99.90;;;;;;5102867;29;20616;-60
2023/08/26 02:46:05;;;;;;;3.30;2.17;;;22.00;99.90;;;;;;5090829;29;20051;-64
2023/08/26 02:48:36;;;;;;;3.10;2.13;;;21.90;99.90;;;;;;5087873;29;20044;-62
2023/08/26 02:51:08;;;;;;;4.35;2.67;;;21.90;99.90;;;;;;5079785;28;20044;-62
2023/08/26 02:53:39;;;;;;;2.58;2.15;;;21.90;99.90;;;;;;5062221;28;20055;-63
2023/08/26 02:56:11;;;;;;;3.17;2.53;;;21.80;99.90;;;;;;5089964;29;20040;-66
2023/08/26 02:58:48;;;;;;;2.97;2.22;;;21.80;99.90;;;;;;5114645;28;20079;-63
2023/08/26 03:01:20;;;;;;;2.55;2.10;;;21.80;1.00;;;;;;5163680;28;20044;-63
2023/08/26 03:04:07;;;;;;;2.67;2.40;;;21.80;1.00;;;;;;5090667;28;20045;-62
2023/08/26 03:06:41;;;;;;;3.10;2.47;;;21.70;1.00;;;;;;5080852;28;20050;-63
2023/08/26 03:09:16;;;;;;;6.55;2.20;;;21.70;1.00;;;;;;5064171;28;20043;-63
2023/08/26 03:11:53;;;;;;;4.88;2.55;;;21.70;1.00;;;;;;5082484;29;20228;-62
2023/08/26 03:14:29;;;;;;;5.10;2.30;;;21.60;1.00;;;;;;5070015;29;20051;-63
2023/08/26 03:17:05;;;;;;;2.63;2.15;;;21.70;1.00;;;;;;5066761;29;20402;-63
2023/08/26 03:19:37;;;;;;;3.33;2.25;;;21.70;1.00;;;;;;5073861;29;20048;-64
2023/08/26 03:22:14;;;;;;;4.43;2.15;;;21.70;1.00;;;;;;5096752;29;20455;-63
2023/08/26 03:24:51;;;;;;;5.05;2.58;;;21.70;1.00;;;;;;5096343;28;20039;-63
2023/08/26 03:27:27;;;;;;;2.72;2.15;;;21.70;1.00;;;;;;5068008;28;20249;-64
2023/08/26 03:30:00;;;;;;;2.70;2.13;;;21.70;1.00;;;;;;5094478;28;20046;-61
2023/08/26 03:32:32;;;;;;;4.00;2.35;;;21.80;1.00;;;;;;5087317;28;20347;-64
2023/08/26 03:35:04;;;;;;;2.90;2.10;;;21.80;1.00;;;;;;5081426;29;20046;-64
2023/08/26 03:37:39;;;;;;;6.10;2.60;;;21.80;1.00;;;;;;5105211;29;20281;-62
2023/08/26 03:40:15;;;;;;;3.25;2.60;;;21.80;1.00;;;;;;5096609;29;20312;-63
2023/08/26 03:42:49;;;;;;;3.17;2.70;;;21.80;1.00;;;;;;5096905;29;20051;-63
2023/08/26 03:45:26;;;;;;;3.17;2.88;;;21.80;1.00;;;;;;5078411;29;20048;-65
2023/08/26 03:48:01;;;;;;;5.78;2.75;;;21.70;1.00;;;;;;5067703;28;20056;-64
2023/08/26 03:50:35;;;;;;;4.70;2.60;;;21.70;1.00;;;;;;5091146;29;20538;-62
2023/08/26 03:53:08;;;;;;;4.20;2.15;;;21.70;1.00;;;;;;5096871;29;20036;-63
2023/08/26 03:55:43;;;;;;;4.32;2.35;;;21.60;1.00;;;;;;5107960;29;20274;-63
2023/08/26 03:58:15;;;;;;;5.57;2.40;;;21.60;1.00;;;;;;5181564;28;20037;-64
2023/08/26 04:00:46;;;;;;;3.83;2.38;;;21.60;1.00;;;;;;5107015;28;20043;-62
2023/08/26 04:03:24;;;;;;;6.20;2.83;;;21.50;1.00;;;;;;5086589;28;20062;-61
2023/08/26 04:06:04;;;;;;;2.40;2.10;;;21.50;1.00;;;;;;5073921;28;20051;-64
2023/08/26 04:08:38;;;;;;;4.60;2.88;;;21.50;1.00;;;;;;5073709;29;20044;-64
2023/08/26 04:11:15;;;;;;;2.67;2.40;;;21.60;1.00;;;;;;5077193;29;20082;-61
2023/08/26 04:13:51;;;;;;;3.58;2.40;;;21.60;1.00;;;;;;5137424;28;20044;-62
2023/08/26 04:16:22;;;;;;;2.45;2.03;;;21.70;1.00;;;;;;5157032;28;20052;-63
2023/08/26 04:18:57;;;;;;;2.67;2.30;;;21.70;1.00;;;;;;5176781;28;20044;-61
2023/08/26 04:21:35;;;;;;;3.45;2.67;;;21.80;1.00;;;;;;5166704;28;20047;-61
2023/08/26 04:24:07;;;;;;;3.10;2.47;;;21.80;1.00;;;;;;5077478;29;20063;-62
2023/08/26 04:26:41;;;;;;;3.03;2.38;;;22.00;1.00;;;;;;5189142;28;20037;-63
2023/08/26 04:29:15;;;;;;;4.05;2.30;;;22.00;1.00;;;;;;5198881;28;20479;-62
2023/08/26 04:31:48;;;;;;;3.25;2.67;;;22.20;1.00;;;;;;5093331;28;20217;-63
2023/08/26 04:34:23;;;;;;;5.88;3.00;;;22.30;1.00;;;;;;5141509;28;20440;-62
2023/08/26 04:36:55;;;;;;;5.38;3.00;;;22.40;1.00;;;;;;5107692;29;20051;-65
2023/08/26 04:39:29;;;;;;;3.40;2.45;;;22.40;1.00;;;;;;5080703;29;20044;-62
2023/08/26 04:42:03;;;;;;;3.45;2.42;;;22.50;99.90;;;;;;5066587;28;20237;-63
2023/08/26 04:44:37;;;;;;;2.60;2.35;;;22.60;99.90;;;;;;5110288;29;20043;-62
2023/08/26 04:47:13;;;;;;;4.47;2.67;;;22.60;99.90;;;;;;5107485;29;20050;-62
2023/08/26 04:49:46;;;;;;;5.00;2.42;;;22.60;99.90;;;;;;5107000;29;20040;-63
2023/08/26 04:52:21;;;;;;;3.00;2.70;;;22.70;99.90;;;;;;5080204;29;20058;-62
2023/08/26 04:54:55;;;;;;;3.75;2.47;;;22.70;99.90;;;;;;5091428;29;20681;-64
2023/08/26 04:57:29;;;;;;;2.70;2.25;;;22.70;99.90;;;;;;5086895;28;20046;-64
2023/08/26 05:00:09;;;;;;;2.45;2.00;;;22.70;99.90;;;;;;5060030;28;20051;-61
2023/08/26 05:02:46;;;;;;;5.65;2.45;;;22.70;99.90;;;;;;5118434;28;20058;-61
2023/08/26 05:05:18;;;;;;;2.95;2.40;;;22.80;99.90;;;;;;5094309;29;20249;-66
2023/08/26 05:07:52;;;;;;;3.95;2.72;;;22.90;99.90;;;;;;5074820;29;20053;-63
2023/08/26 05:10:23;;;;;;;3.13;2.50;;;23.00;99.90;;;;;;5077828;29;20047;-65
2023/08/26 05:13:03;;;;;;;4.70;2.53;;;23.10;99.90;;;;;;5096162;29;20052;-63
2023/08/26 05:15:35;;;;;;;2.90;2.50;;;23.20;1.00;;;;;;5095184;29;20032;-61
2023/08/26 05:18:06;;;;;;;3.55;2.80;;;23.30;70.80;;;;;;5075729;28;20050;-62
2023/08/26 05:20:50;;;;;;;3.40;2.83;;;23.30;99.90;;;;;;5099856;28;20312;-59
2023/08/26 05:23:24;;;;;;;4.03;2.87;;;23.30;99.90;;;;;;5095791;28;20517;-61
2023/08/26 05:25:58;;;;;;;3.60;2.42;;;23.30;99.90;;;;;;5093391;29;20046;-61
2023/08/26 05:28:30;;;;;;;4.00;2.50;;;23.50;99.90;;;;;;5145255;28;20039;-62
2023/08/26 05:31:02;;;;;;;3.72;3.03;;;23.60;15.50;;;;;;5058050;28;20038;-60
2023/08/26 05:33:34;;;;;;;2.20;2.00;;;23.80;1.00;;;;;;5128025;28;20054;-62
2023/08/26 05:36:09;;;;;;;3.95;2.53;;;23.90;1.00;;;;;;5078828;28;20050;-60
2023/08/26 05:38:40;;;;;;;2.72;2.38;;;23.90;1.00;;;;;;5089679;29;20040;-60
2023/08/26 05:41:18;;;;;;;6.10;2.53;;;23.90;1.00;;;;;;5063160;28;20058;-62
2023/08/26 05:43:54;;;;;;;3.25;2.70;;;24.10;1.00;;;;;;5088367;28;20383;-64
2023/08/26 05:46:26;;;;;;;5.13;2.50;;;24.20;99.90;;;;;;5103141;28;20032;-62
2023/08/26 05:49:00;;;;;;;4.55;2.55;;;24.40;99.90;;;;;;5171841;28;20051;-61
2023/08/26 05:51:32;;;;;;;;;;;24.60;1.00;;;;;;5104967;28;20046;-63
2023/08/26 05:54:04;;;;;;;2.97;2.28;;;24.70;1.00;;;;;;5109777;28;20474;-64
2023/08/26 05:56:35;;;;;;;3.10;2.47;;;24.90;1.00;;;;;;5089503;28;20046;-63
2023/08/26 05:59:12;;;;;;;3.38;2.33;;;25.00;1.00;;;;;;5094515;28;20058;-63
2023/08/26 06:01:45;;;;;;;2.72;2.45;;;25.20;99.90;;;;;;5083978;28;20059;-60
2023/08/26 06:04:17;;;;;;;4.07;2.42;;;25.30;99.90;;;;;;5097548;28;20051;-61
2023/08/26 06:06:49;;;;;;;4.38;2.05;;;25.50;99.90;;;;;;5090679;29;20040;-62
2023/08/26 06:09:20;;;;;;;6.15;2.47;;;25.60;96.20;;;;;;5080343;28;20390;-64
2023/08/26 06:11:52;;;;;;;3.22;2.38;;;25.60;1.00;;;;;;5090537;28;20044;-62
2023/08/26 06:14:23;;;;;;;2.67;1.95;;;25.70;1.00;;;;;;5067436;28;20046;-62
2023/08/26 06:16:58;;;;;;;3.45;2.33;;;25.90;1.00;;;;;;5100768;29;20043;-62
2023/08/26 06:19:30;;;;;;;2.60;2.35;;;25.80;1.00;;;;;;5089314;28;20054;-60
2023/08/26 06:22:07;;;;;;;3.85;2.25;;;25.80;1.00;;;;;;5097618;29;20039;-62
2023/08/26 06:24:40;;;;;;;3.45;2.20;;;25.70;1.00;;;;;;5144459;28;20041;-62
2023/08/26 06:27:14;;;;;;;3.83;2.40;;;25.40;1.00;;;;;;5092791;28;20073;-64
2023/08/26 06:29:53;;;;;;;;;;;25.50;1.00;;;;;;5073789;28;20043;-62
2023/08/26 06:32:26;;;;;;;4.53;2.55;;;25.60;1.00;;;;;;5159206;28;19919;-61
2023/08/26 06:35:00;;;;;;;3.55;2.65;;;25.70;1.00;;;;;;5111558;28;20451;-62
2023/08/26 06:37:36;;;;;;;3.38;2.03;;;25.90;1.00;;;;;;5095641;29;20040;-63
2023/08/26 06:40:13;;;;;;;4.75;2.53;;;26.10;1.00;;;;;;5095236;29;20028;-62
2023/08/26 06:42:50;;;;;;;3.85;2.50;;;26.20;1.00;;;;;;5105232;29;20046;-63
2023/08/26 06:45:22;;;;;;;2.45;1.90;;;26.20;1.00;;;;;;5112496;28;20039;-62
2023/08/26 06:47:54;;;;;;;3.42;2.20;;;26.20;1.00;;;;;;5128669;28;20052;-61
2023/08/26 06:50:28;;;;;;;3.00;2.45;;;26.20;1.00;;;;;;5152735;28;20503;-62
2023/08/26 06:53:00;;;;;;;;;;;26.40;1.00;;;;;;5095478;28;20051;-63
2023/08/26 06:55:31;;;;;;;3.75;2.50;;;26.40;1.00;;;;;;5144611;28;19910;-62
2023/08/26 06:58:08;;;;;;;2.47;2.15;;;26.40;1.00;;;;;;5142369;28;20036;-59
2023/08/26 07:00:42;;;;;;;3.15;2.22;;;26.30;1.00;;;;;;5075338;28;20045;-64
2023/08/26 07:03:14;;;;;;;;;;;26.60;1.00;;;;;;5091247;28;20077;-61
2023/08/26 07:05:47;;;;;;;2.25;2.05;;;26.90;99.90;;;;;;5092013;29;19919;-61
2023/08/26 07:08:24;;;;;;;3.85;2.15;;;26.90;99.90;;;;;;5110531;29;20425;-60
2023/08/26 07:10:56;;;;;;;5.15;1.98;;;27.30;99.90;;;;;;5093694;29;20027;-62
2023/08/26 07:13:30;;;;;;;3.05;2.63;;;27.20;52.20;;;;;;5065045;28;20042;-60
2023/08/26 07:16:03;;;;;;;2.92;2.47;;;27.40;1.00;;;;;;5128852;28;20289;-63
2023/08/26 07:18:36;;;;;;;3.22;2.40;;;27.70;1.00;;;;;;5087693;28;20048;-61
2023/08/26 07:21:08;;;;;;;4.45;2.47;;;28.20;1.00;;;;;;5095518;29;20039;-60
2023/08/26 07:23:44;;;;;;;3.15;2.53;;;28.30;1.00;;;;;;5090014;28;20050;-62
2023/08/26 07:26:18;;;;;;;4.28;2.40;;;28.10;99.90;;;;;;5080574;28;20108;-60
2023/08/26 07:28:53;;;;;;;2.20;2.00;;;28.60;99.90;;;;;;5065315;28;20050;-60
2023/08/26 07:31:25;;;;;;;2.67;2.22;;;29.00;99.90;;;;;;5077676;29;20042;-61
2023/08/26 07:33:56;;;;;;;5.13;2.63;;;29.00;1.00;;;;;;5096677;29;20036;-62
2023/08/26 07:36:28;;;;;;;2.47;1.95;;;28.90;1.00;;;;;;5097656;28;20554;-63
2023/08/26 07:38:59;;;;;;;2.83;2.10;;;28.80;1.00;;;;;;5079127;28;20059;-62
2023/08/26 07:41:34;;;;;;;2.92;2.15;;;28.80;1.00;;;;;;5097804;29;20047;-63
2023/08/26 07:44:06;;;;;;;2.55;2.08;;;28.80;1.00;;;;;;5080753;29;20056;-62
2023/08/26 07:46:38;;;;;;;3.65;2.33;;;29.10;1.00;;;;;;5077575;28;20055;-62
2023/08/26 07:49:12;;;;;;;2.25;2.00;;;28.80;1.00;;;;;;5081617;29;20040;-59
2023/08/26 07:51:46;;;;;;;;;;;28.30;1.00;;;;;;5067899;28;20058;-61
2023/08/26 07:54:17;;;;;;;2.80;2.30;;;28.80;1.00;;;;;;5180576;28;19914;-62
2023/08/26 07:56:52;;;;;;;2.60;2.30;;;28.90;1.00;;;;;;5108127;28;20266;-63
2023/08/26 07:59:23;;;;;;;;;;;28.60;1.00;;;;;;5134186;28;20049;-62
2023/08/26 08:01:54;;;;;;;6.40;2.40;;;28.30;1.00;;;;;;5189682;28;19914;-63
2023/08/26 08:04:29;;;;;;;2.47;2.00;;;27.80;1.00;;;;;;5104392;29;20264;-61
2023/08/26 08:07:04;;;;;;;;;;;27.80;1.00;;;;;;5081121;28;20325;-62
2023/08/26 08:09:40;;;;;;;3.28;2.47;;;27.80;1.00;;;;;;5186456;28;19933;-63
2023/08/26 08:12:14;;;;;;;2.80;2.50;;;27.70;1.00;;;;;;5093563;29;20031;-64
2023/08/26 08:14:45;;;;;;;;;;;27.70;1.00;;;;;;5080745;29;20048;-65
2023/08/26 08:17:19;;;;;;;3.00;2.30;;;27.90;1.00;;;;;;5197372;28;19919;-61
2023/08/26 08:19:51;;;;;;;3.47;2.83;;;27.90;1.00;;;;;;5079251;29;20333;-62
2023/08/26 08:22:41;;;;;;;4.47;2.60;;;27.80;1.00;;;;;;5111074;28;20039;-63
2023/08/26 08:25:13;;;;;;;4.43;2.42;;;27.60;1.00;;;;;;5096248;29;20051;-61
2023/08/26 08:27:51;;;;;;;4.03;2.70;;;27.40;1.00;;;;;;5106740;29;20045;-58
2023/08/26 08:30:24;;;;;;;3.17;2.40;;;27.40;1.00;;;;;;5188825;28;20055;-60
2023/08/26 08:32:56;;;;;;;3.00;2.70;;;27.40;1.00;;;;;;5094166;29;20050;-62
2023/08/26 08:35:30;;;;;;;3.58;2.75;;;27.30;1.00;;;;;;5100301;29;20432;-60
2023/08/26 08:38:02;;;;;;;3.05;2.58;;;26.90;1.00;;;;;;5088929;28;20439;-63
2023/08/26 08:40:34;;;;;;;3.38;2.35;;;27.10;51.90;;;;;;5067088;28;20042;-63
2023/08/26 08:43:06;;;;;;;3.22;2.42;;;27.10;1.00;;;;;;5158719;28;20040;-60
2023/08/26 08:45:41;;;;;;;6.50;3.40;;;27.00;37.90;;;;;;5158936;28;20059;-61
2023/08/26 08:48:12;;;;;;;2.80;2.50;;;27.00;94.10;;;;;;5095001;28;20024;-66
2023/08/26 08:50:46;;;;;;;4.03;2.80;;;27.00;99.90;;;;;;5104295;29;20412;-60
2023/08/26 08:53:30;;;;;;;4.68;2.95;;;27.10;99.90;;;;;;5092700;28;20047;-60
2023/08/26 08:56:02;;;;;;;4.43;3.22;;;26.50;99.90;;;;;;5108312;29;20039;-62
2023/08/26 08:58:35;;;;;;;4.20;3.40;;;26.00;1.00;;;;;;5156344;28;20028;-60
2023/08/26 09:01:06;;;;;;;4.00;3.40;;;25.90;91.10;;;;;;5068596;28;20039;-59
2023/08/26 09:03:40;;;;;;;3.63;2.97;;;25.70;1.00;;;;;;5075381;28;20358;-61
2023/08/26 09:06:14;;;;;;;4.22;3.42;;;25.90;1.00;;;;;;5107521;29;20023;-63
2023/08/26 09:08:53;;;;;;;;;;;26.10;1.00;;;;;;5088681;28;20066;-60
2023/08/26 09:11:27;;;;;;;6.85;3.53;;;26.20;1.00;;;;;;5173356;28;19919;-63
2023/08/26 09:13:58;;;;;;;6.25;3.53;;;26.20;1.00;;;;;;5079296;28;20040;-64
2023/08/26 09:16:35;;;;;;;5.97;4.35;;;26.10;1.00;;;;;;5074940;28;20038;-57
2023/08/26 09:19:12;;;;;;;4.35;3.50;;;26.20;1.00;;;;;;5137597;28;20031;-62
2023/08/26 09:21:47;;;;;;;3.70;3.15;;;26.30;1.00;;;;;;5092845;29;20043;-65
2023/08/26 09:24:18;;;;;;;5.38;3.67;;;26.60;99.90;;;;;;5139691;28;20454;-63
2023/08/26 09:27:04;;;;;;;4.40;3.25;;;26.70;99.90;;;;;;5088924;28;20031;-62
2023/08/26 09:29:38;;;;;;;4.88;3.70;;;26.60;60.20;;;;;;5129296;28;20040;-64
2023/08/26 09:32:11;;;;;;;3.85;3.42;;;26.60;1.00;;;;;;5097521;28;20059;-62
2023/08/26 09:34:47;;;;;;;12.50;3.78;;;26.50;46.90;;;;;;5074400;28;20048;-62
2023/08/26 09:37:29;;;;;;;4.80;2.80;;;26.50;99.90;;;;;;5078739;28;20039;-63
2023/08/26 09:40:01;;;;;;;3.45;3.10;;;26.80;1.00;;;;;;5091677;29;20042;-62
2023/08/26 09:42:34;;;;;;;3.60;3.13;;;26.80;1.00;;;;;;5101949;29;20050;-63
2023/08/26 09:45:10;;;;;;;4.47;3.28;;;26.90;1.00;;;;;;5069084;28;20044;-63
2023/08/26 09:47:41;;;;;;;4.32;3.05;;;27.10;1.00;;;;;;5090298;28;20046;-61
2023/08/26 09:50:13;;;;;;;4.35;3.35;;;26.90;1.00;;;;;;5069359;28;20451;-59
2023/08/26 09:52:46;;;;;;;3.42;2.72;;;27.10;1.00;;;;;;5103329;29;20455;-60
2023/08/26 09:55:20;;;;;;;4.00;2.80;;;27.20;1.00;;;;;;5073772;28;20043;-65
2023/08/26 09:57:52;;;;;;;3.17;2.42;;;27.70;1.00;;;;;;5068229;28;20054;-59
2023/08/26 10:00:26;;;;;;;2.70;2.40;;;28.00;1.00;;;;;;5118727;28;20039;-59
2023/08/26 10:03:05;;;;;;;2.70;2.38;;;28.00;99.90;;;;;;5068181;28;20051;-59
2023/08/26 10:05:39;;;;;;;4.55;2.30;;;28.70;99.90;;;;;;5107625;28;20050;-60
2023/08/26 10:08:11;;;;;;;3.58;1.92;;;29.20;1.00;;;;;;5076511;28;20115;-60
2023/08/26 10:11:10;;;;;;;3.53;2.10;;;29.00;1.00;;;;;;5075492;28;20043;-59
2023/08/26 10:13:47;;;;;;;6.80;2.10;;;29.10;1.00;;;;;;5091940;28;20038;-59
2023/08/26 10:16:23;;;;;;;2.05;1.83;;;30.20;99.90;;;;;;5081636;29;20043;-61
2023/08/26 10:18:59;;;;;;;1.85;1.70;;;31.40;98.90;;;;;;5104921;28;20055;-62
2023/08/26 10:21:35;;;;;;;1.77;1.67;;;31.90;1.00;;;;;;5113386;28;20040;-62
2023/08/26 10:24:09;;;;;;;2.15;1.90;;;32.10;1.00;;;;;;5074689;28;20043;-63
2023/08/26 10:26:41;;;;;;;5.78;2.15;;;32.80;1.00;;;;;;5063035;28;20043;-61
2023/08/26 10:29:16;;;;;;;2.75;2.13;;;33.10;1.00;;;;;;5087038;28;20045;-62
2023/08/26 10:31:53;;;;;;;5.50;2.40;;;33.70;1.00;;;;;;5156519;28;20346;-60
2023/08/26 10:34:34;;;;;;;4.25;1.80;;;32.60;1.00;;;;;;5117553;28;20135;-60
2023/08/26 10:37:07;;;;;;;1.60;1.50;;;31.50;99.90;;;;;;5060498;28;20396;-61
2023/08/26 10:39:39;;;;;;;2.78;2.35;;;31.00;99.90;;;;;;5076210;28;20032;-59
2023/08/26 10:42:16;;;;;;;3.00;1.90;;;30.30;99.90;;;;;;5097148;28;20040;-60
2023/08/26 10:44:57;;;;;;;3.05;2.10;;;30.60;1.00;;;;;;5108860;29;20046;-61
2023/08/26 10:47:54;;;;;;;3.28;2.15;;;32.40;1.00;;;;;;5064969;28;20044;-61
2023/08/26 10:50:28;;;;;;;2.30;1.85;;;31.80;99.90;;;;;;5079065;28;20042;-61
2023/08/26 10:53:14;;;;;;;2.20;1.88;;;32.60;99.90;;;;;;5162774;28;20052;-58
2023/08/26 10:55:50;;;;;;;3.55;2.35;;;34.30;1.00;;;;;;5110087;29;20047;-62
2023/08/26 10:58:22;;;;;;;3.90;1.80;;;34.20;99.90;;;;;;5097976;28;20043;-61
2023/08/26 11:00:55;;;;;;;2.20;2.00;;;33.30;99.90;;;;;;5077718;28;20035;-61
2023/08/26 11:03:31;;;;;;;3.00;2.70;;;31.90;36.80;;;;;;5114280;28;20034;-60
2023/08/26 11:06:08;;;;;;;2.33;1.73;;;31.20;72.70;;;;;;5084618;28;20366;-60
2023/08/26 11:08:52;;;;;;;2.55;2.10;;;30.70;63.60;;;;;;5097379;28;20039;-60
2023/08/26 11:11:29;;;;;;;2.00;1.80;;;30.50;68.80;;;;;;5068589;28;20483;-62
2023/08/26 11:14:01;;;;;;;3.75;1.75;;;30.90;18.70;;;;;;5113123;29;20043;-62
2023/08/26 11:16:35;;;;;;;4.65;1.77;;;30.70;28.00;;;;;;5081314;28;20065;-62
2023/08/26 11:19:11;;;;;;;;;;;31.00;1.00;;;;;;5068427;28;20042;-63
2023/08/26 11:21:43;;;;;;;1.92;1.50;;;31.00;1.00;;;;;;5182455;28;19924;-60
2023/08/26 11:24:17;;;;;;;3.58;1.52;;;30.90;1.00;;;;;;5097698;28;20047;-62
2023/08/26 11:26:51;;;;;;;2.65;1.73;;;31.00;1.00;;;;;;5069114;28;20046;-63
2023/08/26 11:29:25;;;;;;;1.70;1.55;;;31.90;5.10;;;;;;5084055;28;20043;-60
2023/08/26 11:31:57;;;;;;;4.07;1.58;;;34.00;1.00;;;;;;5098905;28;20410;-60
2023/08/26 11:34:28;;;;;;;2.00;1.40;;;35.30;1.00;;;;;;5142772;28;20047;-62
2023/08/26 11:37:02;;;;;;;2.35;1.80;;;35.00;1.00;;;;;;5110688;28;20043;-61
2023/08/26 11:39:35;;;;;;;2.17;1.40;;;35.30;1.00;;;;;;5172951;28;20036;-60
2023/08/26 11:42:15;;;;;;;1.60;1.50;;;34.60;1.00;;;;;;5091862;28;20558;-62
2023/08/26 11:44:50;;;;;;;3.85;1.75;;;34.80;1.00;;;;;;5099377;28;20076;-61
2023/08/26 11:47:24;;;;;;;3.72;2.05;;;34.20;1.00;;;;;;5090141;28;20029;-61
2023/08/26 11:49:57;;;;;;;2.22;1.33;;;34.00;1.00;;;;;;5114656;28;20501;-61
2023/08/26 11:52:36;;;;;;;3.08;1.73;;;34.30;1.00;;;;;;5068203;28;20035;-60
2023/08/26 11:55:09;;;;;;;3.42;1.90;;;34.00;1.00;;;;;;5157883;28;21257;-62
2023/08/26 11:57:44;;;;;;;2.15;1.77;;;35.20;1.00;;;;;;5113232;28;20328;-62
2023/08/26 12:00:21;;;;;;;2.67;1.90;;;35.70;1.00;;;;;;5094930;28;20077;-60
2023/08/26 12:03:03;;;;;;;3.53;1.95;;;34.80;1.00;;;;;;5171066;28;20036;-59
2023/08/26 12:05:48;;;;;;;3.60;1.73;;;36.10;1.00;;;;;;5113376;28;20053;-62
2023/08/26 12:08:26;;;;;;;1.83;1.70;;;35.70;1.00;;;;;;5174469;28;20052;-61
2023/08/26 12:10:58;;;;;;;2.72;1.83;;;35.40;1.00;;;;;;5162463;28;20035;-61
2023/08/26 12:13:39;;;;;;;2.72;2.00;;;35.90;1.00;;;;;;5101828;28;20041;-61
2023/08/26 12:16:15;;;;;;;2.97;2.38;;;37.10;1.00;;;;;;5124262;28;20038;-58
2023/08/26 12:18:48;;;;;;;1.92;1.80;;;36.60;1.00;;;;;;5097922;28;20039;-60
2023/08/26 12:21:20;;;;;;;2.00;1.80;;;36.80;1.00;;;;;;5081741;28;20542;-61
2023/08/26 12:23:51;;;;;;;2.53;1.92;;;36.80;1.00;;;;;;5114496;29;20039;-61
2023/08/26 12:26:24;;;;;;;2.08;1.88;;;35.70;1.00;;;;;;5066306;28;20077;-61
2023/08/26 12:28:55;;;;;;;2.17;1.98;;;33.80;1.00;;;;;;5081423;28;20209;-59
2023/08/26 12:31:34;;;;;;;2.00;1.80;;;33.30;1.00;;;;;;5076297;28;20507;-61
2023/08/26 12:34:08;;;;;;;2.08;1.77;;;32.20;1.00;;;;;;5081795;28;20046;-61
2023/08/26 12:36:39;;;;;;;2.08;1.88;;;32.00;99.90;;;;;;5099150;28;20042;-60
2023/08/26 12:39:11;;;;;;;2.95;1.75;;;32.60;1.00;;;;;;5160977;28;20037;-62
2023/08/26 12:41:43;;;;;;;1.70;1.60;;;34.70;1.00;;;;;;5161846;28;20045;-60
2023/08/26 12:44:16;;;;;;;2.25;1.77;;;36.70;1.00;;;;;;5180407;28;20341;-63
2023/08/26 12:46:48;;;;;;;3.00;1.65;;;37.10;1.00;;;;;;5080940;28;20505;-62
2023/08/26 12:49:19;;;;;;;1.52;1.42;;;37.00;1.00;;;;;;5081759;28;20035;-59
2023/08/26 12:51:51;;;;;;;1.55;1.45;;;37.60;99.90;;;;;;5082426;28;20058;-64
2023/08/26 12:54:28;;;;;;;2.15;1.65;;;38.40;99.90;;;;;;5080809;28;20054;-61
2023/08/26 12:57:00;;;;;;;2.17;1.98;;;38.90;99.90;;;;;;5084661;28;20043;-61
2023/08/26 12:59:31;;;;;;;2.35;2.15;;;38.40;99.90;;;;;;5075572;28;20042;-61
2023/08/26 13:02:08;;;;;;;2.55;1.55;;;39.40;99.90;;;;;;5110433;28;20039;-64
2023/08/26 13:04:42;;;;;;;3.88;2.00;;;39.50;99.90;;;;;;5114207;28;20077;-64
2023/08/26 13:07:15;;;;;;;2.20;1.80;;;38.70;99.90;;;;;;5081807;28;20037;-65
2023/08/26 13:09:48;;;;;;;2.83;1.75;;;38.60;99.90;;;;;;5083673;29;20043;-63
2023/08/26 13:12:19;;;;;;;2.72;1.92;;;38.90;99.90;;;;;;5081765;28;20043;-62
2023/08/26 13:14:56;;;;;;;1.90;1.70;;;38.50;99.90;;;;;;5111277;28;20025;-61
2023/08/26 13:17:28;;;;;;;1.95;1.80;;;37.60;99.90;;;;;;5063960;28;20043;-61
2023/08/26 13:19:59;;;;;;;2.47;2.28;;;35.50;99.90;;;;;;5114060;28;20046;-63
2023/08/26 13:22:31;;;;;;;2.80;1.98;;;36.40;99.90;;;;;;5110216;28;20074;-61
2023/08/26 13:25:05;;;;;;;2.70;2.33;;;36.60;99.90;;;;;;5093539;28;20567;-63
2023/08/26 13:27:37;;;;;;;6.40;2.15;;;37.50;99.90;;;;;;5158540;28;20050;-61
2023/08/26 13:30:12;;;;;;;3.00;2.10;;;39.20;99.90;;;;;;5089605;28;21076;-64
2023/08/26 13:32:44;;;;;;;2.50;2.28;;;39.50;99.90;;;;;;5102696;28;20039;-63
2023/08/26 13:35:15;;;;;;;4.50;2.45;;;40.40;99.90;;;;;;5109251;28;20129;-61